Time;durP1;ratioP1;P1;durP2;ratioP2;P2;SDS_P1;SDS_P2;PMS_P1;PMS_P2;Temp;Humidity;BMP_temperature;BMP_pressure;BME280_temperature;BME280_humidity;BME280_pressure;Samples;Min_cycle;Max_cycle;Signal;HPM_P1;HPM_P2
2023/09/14 00:01:11;;;;;;;13.18;10.73;;;512.70;2252.80;;;;;;5062120;28;20029;-62
2023/09/14 00:03:37;;;;;;;13.45;11.57;;;512.80;2252.80;;;;;;5087047;28;20500;-62
2023/09/14 00:06:04;;;;;;;15.73;11.18;;;512.70;2252.80;;;;;;5088689;28;20390;-62
2023/09/14 00:08:30;;;;;;;14.27;9.65;;;512.80;2227.20;;;;;;5088647;28;20032;-61
2023/09/14 00:10:58;;;;;;;12.10;10.38;;;512.90;2201.60;;;;;;5088757;28;20042;-62
2023/09/14 00:13:25;;;;;;;13.40;10.15;;;512.90;2227.20;;;;;;5088124;28;20397;-62
2023/09/14 00:15:51;;;;;;;10.48;9.02;;;512.90;2201.60;;;;;;5088441;28;20024;-62
2023/09/14 00:18:17;;;;;;;14.88;10.38;;;512.90;2201.60;;;;;;5088871;28;20463;-62
2023/09/14 00:20:43;;;;;;;15.20;10.18;;;512.90;2201.60;;;;;;5088628;28;20078;-62
2023/09/14 00:23:10;;;;;;;12.55;8.95;;;512.90;2227.20;;;;;;5088094;28;20016;-62
2023/09/14 00:25:36;;;;;;;12.93;9.30;;;512.90;2201.60;;;;;;5088740;28;20028;-61
2023/09/14 00:28:01;;;;;;;12.90;8.52;;;512.90;2176.00;;;;;;5088850;28;20016;-62
2023/09/14 00:30:27;;;;;;;9.50;8.48;;;537.60;2176.00;;;;;;5086499;28;20121;-62
2023/09/14 00:32:53;;;;;;;11.93;7.32;;;537.80;2176.00;;;;;;5080907;28;20040;-61
2023/09/14 00:35:20;;;;;;;14.45;9.25;;;537.90;2150.40;;;;;;5092203;28;20028;-62
2023/09/14 00:37:46;;;;;;;9.10;8.20;;;538.00;2150.40;;;;;;5091971;28;20028;-62
2023/09/14 00:40:14;;;;;;;13.35;8.05;;;537.90;2150.40;;;;;;5091927;28;20079;-62
2023/09/14 00:42:41;;;;;;;17.42;8.57;;;537.90;2176.00;;;;;;5092360;28;20452;-62
2023/09/14 00:45:08;;;;;;;10.40;8.05;;;537.90;2176.00;;;;;;5092137;28;20085;-62
2023/09/14 00:47:35;;;;;;;11.45;8.57;;;538.00;2150.40;;;;;;5091455;28;20012;-63
2023/09/14 00:50:05;;;;;;;11.65;8.55;;;538.10;2124.80;;;;;;5092602;28;20146;-62
2023/09/14 00:52:33;;;;;;;15.45;9.32;;;538.20;2124.80;;;;;;5066287;28;20032;-62
2023/09/14 00:55:00;;;;;;;13.07;8.82;;;538.20;2124.80;;;;;;5091999;28;20020;-62
2023/09/14 00:57:26;;;;;;;9.23;7.72;;;538.30;2124.80;;;;;;5091712;28;20530;-62
2023/09/14 00:59:52;;;;;;;14.75;9.50;;;538.40;2099.20;;;;;;5092134;28;20024;-63
2023/09/14 01:02:19;;;;;;;16.58;9.75;;;538.50;2124.80;;;;;;5089407;28;20035;-61
2023/09/14 01:04:44;;;;;;;12.57;8.55;;;538.50;2150.40;;;;;;5073122;28;20021;-63
2023/09/14 01:07:10;;;;;;;12.40;9.00;;;538.30;2150.40;;;;;;5083562;28;20024;-62
2023/09/14 01:09:36;;;;;;;12.65;10.23;;;538.30;2150.40;;;;;;5091046;28;20381;-62
2023/09/14 01:12:03;;;;;;;8.95;7.90;;;538.20;2176.00;;;;;;5091625;28;20032;-62
2023/09/14 01:14:45;;;;;;;11.75;8.57;;;538.20;2176.00;;;;;;5091534;28;20081;-62
2023/09/14 01:17:23;;;;;;;10.80;8.68;;;538.10;2176.00;;;;;;5091672;28;20027;-62
2023/09/14 01:20:12;;;;;;;11.43;8.18;;;538.00;2176.00;;;;;;5091208;28;20020;-62
2023/09/14 01:22:38;;;;;;;9.18;8.18;;;538.00;2176.00;;;;;;5008691;28;20038;-62
2023/09/14 01:25:25;;;;;;;14.80;8.75;;;538.00;2176.00;;;;;;5009323;28;20034;-62
2023/09/14 01:27:51;;;;;;;10.25;7.88;;;538.00;2176.00;;;;;;5008961;28;20439;-62
2023/09/14 01:30:17;;;;;;;12.32;8.00;;;538.00;2176.00;;;;;;5008829;28;20065;-62
2023/09/14 01:32:42;;;;;;;10.95;8.52;;;538.00;2176.00;;;;;;5008569;28;20037;-62
2023/09/14 01:35:08;;;;;;;13.18;8.60;;;538.00;2201.60;;;;;;4996747;28;20030;-62
2023/09/14 01:37:34;;;;;;;15.07;8.60;;;538.00;2176.00;;;;;;4996477;28;20030;-63
2023/09/14 01:40:01;;;;;;;11.52;7.78;;;538.10;2176.00;;;;;;5008066;28;20080;-62
2023/09/14 01:42:27;;;;;;;9.75;7.53;;;538.20;2150.40;;;;;;5008742;28;20030;-62
2023/09/14 01:44:54;;;;;;;14.88;7.82;;;538.20;2124.80;;;;;;5008662;28;20543;-62
2023/09/14 01:47:19;;;;;;;9.75;7.45;;;538.40;2099.20;;;;;;5007501;28;20033;-62
2023/09/14 01:49:45;;;;;;;19.13;8.05;;;538.50;2099.20;;;;;;5008662;28;20037;-62
2023/09/14 01:52:11;;;;;;;8.40;6.95;;;563.20;2124.80;;;;;;5007869;28;20104;-62
2023/09/14 01:54:37;;;;;;;11.18;7.65;;;563.20;2099.20;;;;;;5008063;28;20030;-63
2023/09/14 01:57:04;;;;;;;12.65;7.78;;;563.40;2099.20;;;;;;5008561;28;20026;-62
2023/09/14 01:59:30;;;;;;;10.05;7.45;;;563.30;2124.80;;;;;;5043528;28;20085;-62
2023/09/14 02:01:55;;;;;;;12.23;7.90;;;563.40;2099.20;;;;;;5089889;28;20020;-62
2023/09/14 02:04:21;;;;;;;8.75;7.55;;;563.40;2099.20;;;;;;5090583;28;20077;-63
2023/09/14 02:06:47;;;;;;;9.63;7.35;;;563.40;2099.20;;;;;;5090403;28;20440;-63
2023/09/14 02:09:13;;;;;;;10.00;7.13;;;563.50;2099.20;;;;;;5077107;28;20058;-62
2023/09/14 02:11:38;;;;;;;13.13;7.45;;;563.50;2099.20;;;;;;5086621;28;20493;-62
2023/09/14 02:14:04;;;;;;;10.35;6.65;;;563.60;2124.80;;;;;;5090398;28;20080;-63
2023/09/14 02:16:30;;;;;;;9.93;7.13;;;563.50;2124.80;;;;;;5090201;28;20047;-62
2023/09/14 02:18:56;;;;;;;12.55;7.82;;;563.40;2150.40;;;;;;5090437;28;20508;-62
2023/09/14 02:21:21;;;;;;;8.88;7.55;;;563.50;2124.80;;;;;;5090215;28;20024;-62
2023/09/14 02:23:47;;;;;;;11.20;7.82;;;563.50;2150.40;;;;;;5088759;28;20479;-62
2023/09/14 02:26:13;;;;;;;9.00;7.97;;;563.60;2124.80;;;;;;5089863;28;20043;-62
2023/09/14 02:28:39;;;;;;;11.00;8.40;;;563.40;2176.00;;;;;;5090261;28;20020;-62
2023/09/14 02:31:07;;;;;;;11.73;7.93;;;563.20;2201.60;;;;;;5089927;28;20032;-63
2023/09/14 02:33:33;;;;;;;11.43;7.95;;;538.50;2176.00;;;;;;5090028;28;20529;-62
2023/09/14 02:35:59;;;;;;;13.32;8.23;;;538.50;2176.00;;;;;;5089682;28;20016;-62
2023/09/14 02:38:25;;;;;;;11.35;8.43;;;538.50;2176.00;;;;;;5089725;28;20012;-63
2023/09/14 02:40:51;;;;;;;10.80;7.82;;;563.20;2176.00;;;;;;5089660;28;20113;-62
2023/09/14 02:43:17;;;;;;;9.38;8.25;;;563.20;2176.00;;;;;;5089854;28;20020;-62
2023/09/14 02:45:42;;;;;;;11.48;8.20;;;563.40;2150.40;;;;;;5082883;28;20351;-62
2023/09/14 02:48:08;;;;;;;9.95;7.85;;;563.50;2124.80;;;;;;5063508;28;20021;-63
2023/09/14 02:50:34;;;;;;;10.65;7.90;;;563.60;2124.80;;;;;;5086190;28;20043;-63
2023/09/14 02:53:00;;;;;;;10.30;8.63;;;563.80;2099.20;;;;;;5089749;28;20463;-62
2023/09/14 02:55:25;;;;;;;13.20;8.73;;;563.80;2099.20;;;;;;5089241;28;20086;-62
2023/09/14 02:57:51;;;;;;;11.82;8.98;;;564.00;2048.00;;;;;;5089907;28;20043;-62
2023/09/14 03:00:17;;;;;;;9.90;8.23;;;564.10;2048.00;;;;;;5089178;28;20038;-62
2023/09/14 03:02:47;;;;;;;10.48;8.52;;;588.80;2048.00;;;;;;5089146;28;20492;-62
2023/09/14 03:05:13;;;;;;;10.88;7.72;;;588.80;2022.40;;;;;;5089387;28;20437;-62
2023/09/14 03:07:38;;;;;;;13.98;7.93;;;588.80;2048.00;;;;;;5089789;28;20043;-62
2023/09/14 03:10:06;;;;;;;11.98;8.38;;;588.90;2022.40;;;;;;5087086;28;20487;-63
2023/09/14 03:12:31;;;;;;;16.73;8.98;;;589.00;2022.40;;;;;;5089781;28;20039;-62
2023/09/14 03:14:57;;;;;;;13.52;8.82;;;589.10;2022.40;;;;;;5088671;28;20016;-62
2023/09/14 03:17:24;;;;;;;11.02;8.27;;;589.10;2022.40;;;;;;5089221;28;20024;-63
2023/09/14 03:19:52;;;;;;;10.55;7.90;;;589.20;1996.80;;;;;;5071131;28;20118;-63
2023/09/14 03:22:18;;;;;;;12.52;8.32;;;589.30;1996.80;;;;;;5076910;28;20028;-63
2023/09/14 03:24:44;;;;;;;11.73;8.68;;;589.30;1971.20;;;;;;5088290;28;20028;-63
2023/09/14 03:27:10;;;;;;;9.07;7.90;;;589.30;1996.80;;;;;;5089516;28;20036;-62
2023/09/14 03:29:35;;;;;;;18.25;10.10;;;589.30;1996.80;;;;;;5088874;28;20091;-62
2023/09/14 03:32:01;;;;;;;13.48;8.95;;;589.20;2073.60;;;;;;5089225;28;20054;-62
2023/09/14 03:34:27;;;;;;;11.82;9.27;;;589.10;2124.80;;;;;;5089097;28;20051;-62
2023/09/14 03:36:52;;;;;;;13.38;10.70;;;588.90;2124.80;;;;;;5089791;28;20028;-63
2023/09/14 03:39:18;;;;;;;13.52;10.25;;;588.80;2176.00;;;;;;5088508;28;20402;-63
2023/09/14 03:41:44;;;;;;;11.70;9.02;;;564.00;2176.00;;;;;;5088957;28;20028;-63
2023/09/14 03:44:10;;;;;;;13.60;11.85;;;564.10;2150.40;;;;;;5089542;28;20355;-62
2023/09/14 03:46:36;;;;;;;15.25;13.10;;;564.10;2150.40;;;;;;5088837;28;20031;-62
2023/09/14 03:49:02;;;;;;;14.98;12.80;;;564.00;2150.40;;;;;;5088660;28;20019;-62
2023/09/14 03:51:28;;;;;;;17.40;10.52;;;564.00;2176.00;;;;;;5088837;28;20036;-62
2023/09/14 03:53:54;;;;;;;13.90;10.13;;;563.80;2150.40;;;;;;5088903;28;20023;-64
2023/09/14 03:56:19;;;;;;;11.77;9.65;;;563.80;2150.40;;;;;;5069656;28;20035;-62
2023/09/14 03:58:45;;;;;;;12.48;9.57;;;563.90;2150.40;;;;;;5076316;28;20040;-63
2023/09/14 04:01:11;;;;;;;13.23;10.73;;;563.90;2176.00;;;;;;5075223;28;20041;-63
2023/09/14 04:03:36;;;;;;;18.13;10.25;;;563.80;2176.00;;;;;;5089857;28;20020;-63
2023/09/14 04:06:02;;;;;;;14.52;10.38;;;563.90;2201.60;;;;;;5093131;28;20024;-62
2023/09/14 04:08:28;;;;;;;12.10;9.88;;;563.80;2201.60;;;;;;5087239;28;20620;-63
2023/09/14 04:10:54;;;;;;;15.07;9.88;;;563.90;2176.00;;;;;;5084509;28;20044;-63
2023/09/14 04:13:29;;;;;;;12.95;10.38;;;563.90;2201.60;;;;;;5093238;28;20016;-62
2023/09/14 04:15:56;;;;;;;16.70;9.98;;;563.80;2227.20;;;;;;5092534;28;20386;-63
2023/09/14 04:18:25;;;;;;;14.20;10.18;;;563.80;2201.60;;;;;;5093035;28;20027;-63
2023/09/14 04:20:51;;;;;;;12.10;9.63;;;563.90;2176.00;;;;;;5092833;28;20031;-63
2023/09/14 04:23:18;;;;;;;11.48;9.27;;;563.80;2201.60;;;;;;5092722;28;20482;-63
2023/09/14 04:25:46;;;;;;;15.18;9.25;;;563.80;2201.60;;;;;;5092898;28;20081;-62
2023/09/14 04:28:16;;;;;;;14.23;9.73;;;563.80;2201.60;;;;;;5069878;28;20024;-62
2023/09/14 04:30:43;;;;;;;14.80;10.38;;;563.90;2176.00;;;;;;5082634;28;20036;-62
2023/09/14 04:33:13;;;;;;;12.38;9.85;;;564.10;2150.40;;;;;;5092937;28;20020;-62
2023/09/14 04:35:40;;;;;;;11.65;9.73;;;563.90;2176.00;;;;;;5092769;28;20028;-62
2023/09/14 04:38:06;;;;;;;11.88;9.50;;;563.80;2176.00;;;;;;5092258;28;20031;-62
2023/09/14 04:40:38;;;;;;;15.70;9.48;;;563.90;2176.00;;;;;;5087452;28;20506;-63
2023/09/14 04:43:04;;;;;;;12.45;9.60;;;563.90;2176.00;;;;;;5083598;28;20982;-63
2023/09/14 04:45:30;;;;;;;13.75;8.93;;;563.80;2227.20;;;;;;5091946;28;20024;-62
2023/09/14 04:47:57;;;;;;;10.77;9.18;;;563.60;2252.80;;;;;;5091966;28;20424;-63
2023/09/14 04:50:22;;;;;;;12.02;8.48;;;563.60;2278.40;;;;;;5086796;28;20044;-62
2023/09/14 04:52:48;;;;;;;13.88;11.30;;;563.60;2278.40;;;;;;5071975;28;20375;-62
2023/09/14 04:55:14;;;;;;;14.88;10.63;;;563.60;2252.80;;;;;;5084283;28;20123;-63
2023/09/14 04:57:40;;;;;;;14.43;10.68;;;563.60;2252.80;;;;;;5083942;28;20020;-62
2023/09/14 05:00:09;;;;;;;13.60;10.35;;;563.50;2278.40;;;;;;5091035;28;20032;-62
2023/09/14 05:02:35;;;;;;;16.08;10.65;;;563.50;2304.00;;;;;;5091648;28;20048;-63
2023/09/14 05:05:02;;;;;;;13.95;10.80;;;563.50;2304.00;;;;;;5082515;28;20017;-62
2023/09/14 05:07:28;;;;;;;15.60;10.32;;;563.50;2304.00;;;;;;5083749;28;20023;-63
2023/09/14 05:09:53;;;;;;;14.68;10.25;;;563.60;2329.60;;;;;;5091468;28;20074;-62
2023/09/14 05:12:21;;;;;;;21.45;12.32;;;563.70;2329.60;;;;;;5079079;28;20440;-62
2023/09/14 05:14:47;;;;;;;12.32;9.93;;;563.60;2380.80;;;;;;5089770;28;20023;-63
2023/09/14 05:17:12;;;;;;;15.65;9.98;;;563.60;2380.80;;;;;;5091863;28;20061;-62
2023/09/14 05:19:44;;;;;;;15.13;9.98;;;563.60;2355.20;;;;;;5090934;28;20024;-62
2023/09/14 05:22:10;;;;;;;15.90;10.82;;;563.60;2355.20;;;;;;5089946;28;20047;-62
2023/09/14 05:24:39;;;;;;;11.88;10.50;;;563.60;2304.00;;;;;;5091462;28;20024;-63
2023/09/14 05:27:05;;;;;;;12.77;10.23;;;563.70;2304.00;;;;;;5090982;28;20031;-63
2023/09/14 05:29:30;;;;;;;13.30;10.43;;;563.70;2329.60;;;;;;5091127;28;20024;-63
2023/09/14 05:31:56;;;;;;;15.90;10.70;;;563.60;2329.60;;;;;;5083984;28;20044;-62
2023/09/14 05:34:22;;;;;;;17.90;11.38;;;563.70;2329.60;;;;;;5064987;28;20060;-62
2023/09/14 05:36:49;;;;;;;13.07;10.50;;;563.80;2278.40;;;;;;5073791;28;20027;-62
2023/09/14 05:39:14;;;;;;;13.50;9.73;;;564.10;2278.40;;;;;;5085027;28;20612;-63
2023/09/14 05:41:40;;;;;;;14.65;10.82;;;588.80;2278.40;;;;;;5091444;28;20033;-62
2023/09/14 05:44:10;;;;;;;14.85;10.80;;;588.90;2304.00;;;;;;5090991;28;20493;-62
2023/09/14 05:46:36;;;;;;;19.77;11.93;;;589.20;2278.40;;;;;;5090658;28;20039;-63
2023/09/14 05:49:02;;;;;;;12.43;10.50;;;589.60;2278.40;;;;;;5091514;28;20024;-62
2023/09/14 05:51:28;;;;;;;16.05;12.30;;;;;;;;;;5090849;28;20028;-62
2023/09/14 05:53:55;;;;;;;15.30;11.82;;;614.40;2252.80;;;;;;5090456;28;20016;-63
2023/09/14 05:56:21;;;;;;;16.88;11.88;;;615.00;2201.60;;;;;;5091026;28;20027;-63
2023/09/14 05:58:47;;;;;;;18.13;13.43;;;615.20;2176.00;;;;;;5090707;28;20012;-63
2023/09/14 06:01:14;;;;;;;22.10;13.45;;;614.90;2201.60;;;;;;5090921;28;20594;-63
2023/09/14 06:03:40;;;;;;;19.52;14.60;;;615.20;2201.60;;;;;;5090251;28;20023;-63
2023/09/14 06:06:06;;;;;;;19.55;11.68;;;640.50;2176.00;;;;;;5090923;28;20012;-63
2023/09/14 06:08:32;;;;;;;14.48;11.27;;;640.60;2099.20;;;;;;5071667;28;20536;-63
2023/09/14 06:10:58;;;;;;;19.50;13.75;;;640.40;2124.80;;;;;;5077883;28;20062;-62
2023/09/14 06:13:24;;;;;;;17.88;13.10;;;640.60;2150.40;;;;;;5090462;28;20069;-63
2023/09/14 06:15:51;;;;;;;15.70;12.55;;;640.70;2150.40;;;;;;5090541;28;20495;-62
2023/09/14 06:18:17;;;;;;;18.40;13.18;;;666.00;2099.20;;;;;;5090345;28;20020;-63
2023/09/14 06:20:44;;;;;;;22.02;13.70;;;665.90;2124.80;;;;;;5090031;28;20137;-63
2023/09/14 06:23:09;;;;;;;15.43;12.00;;;665.60;2176.00;;;;;;5088666;28;20468;-63
2023/09/14 06:25:35;;;;;;;14.77;11.20;;;665.60;2176.00;;;;;;5090326;28;20046;-63
2023/09/14 06:28:01;;;;;;;14.45;11.85;;;666.30;2073.60;;;;;;5089947;28;20020;-63
2023/09/14 06:30:26;;;;;;;15.95;12.77;;;691.40;2022.40;;;;;;5090274;28;20062;-64
2023/09/14 06:32:52;;;;;;;16.38;11.35;;;691.20;2022.40;;;;;;5090366;28;20061;-63
2023/09/14 06:35:18;;;;;;;15.48;12.35;;;691.20;2048.00;;;;;;5089958;28;20027;-63
2023/09/14 06:37:43;;;;;;;12.73;11.32;;;666.50;2073.60;;;;;;5090602;28;20020;-63
2023/09/14 06:40:10;;;;;;;13.73;11.27;;;666.20;2099.20;;;;;;5088085;28;20044;-63
2023/09/14 06:42:36;;;;;;;13.57;12.18;;;666.20;2099.20;;;;;;5063993;28;20036;-63
2023/09/14 06:45:03;;;;;;;13.32;11.68;;;666.30;2099.20;;;;;;5062769;28;20166;-62
2023/09/14 06:47:29;;;;;;;20.00;11.75;;;691.40;2073.60;;;;;;5069152;28;20031;-63
2023/09/14 06:49:54;;;;;;;17.52;11.52;;;691.70;2048.00;;;;;;5066889;28;20060;-64
2023/09/14 06:52:20;;;;;;;14.57;13.05;;;692.00;1996.80;;;;;;5070759;28;20117;-64
2023/09/14 06:54:47;;;;;;;20.05;11.95;;;717.20;1996.80;;;;;;5067812;28;20064;-63
2023/09/14 06:57:13;;;;;;;15.90;13.98;;;717.40;1971.20;;;;;;5069751;28;20037;-63
2023/09/14 06:59:38;;;;;;;17.83;13.48;;;742.60;1996.80;;;;;;5086315;28;20473;-62
2023/09/14 07:02:05;;;;;;;13.80;12.40;;;793.60;1868.80;;;;;;5082369;28;20044;-63
2023/09/14 07:04:31;;;;;;;14.65;13.35;;;819.20;1792.00;;;;;;5075361;28;20033;-64
2023/09/14 07:06:57;;;;;;;12.82;11.45;;;819.30;1766.40;;;;;;5081952;28;20012;-64
2023/09/14 07:09:23;;;;;;;17.75;13.60;;;794.50;1766.40;;;;;;5073479;28;20402;-63
2023/09/14 07:11:49;;;;;;;15.32;12.18;;;794.40;1817.60;;;;;;5069205;28;20033;-63
2023/09/14 07:14:14;;;;;;;12.95;11.50;;;794.50;1792.00;;;;;;5068702;28;20024;-63
2023/09/14 07:16:40;;;;;;;15.52;12.20;;;793.80;1817.60;;;;;;5069455;28;20039;-63
2023/09/14 07:19:06;;;;;;;12.27;11.05;;;768.90;1792.00;;;;;;5068709;28;20395;-63
2023/09/14 07:21:37;;;;;;;13.82;12.45;;;794.00;1817.60;;;;;;5076064;28;20390;-64
2023/09/14 07:24:07;;;;;;;14.02;12.40;;;794.00;1817.60;;;;;;5084482;28;20050;-63
2023/09/14 07:26:34;;;;;;;14.57;13.00;;;793.80;1868.80;;;;;;5079924;28;20029;-63
2023/09/14 07:29:00;;;;;;;15.38;12.57;;;819.50;1766.40;;;;;;5070069;28;20034;-64
2023/09/14 07:31:26;;;;;;;13.93;12.48;;;820.00;1715.20;;;;;;5059268;28;20037;-64
2023/09/14 07:33:52;;;;;;;14.27;12.68;;;845.20;1689.60;;;;;;5076334;28;20446;-63
2023/09/14 07:36:18;;;;;;;14.18;12.88;;;871.20;1612.80;;;;;;5069238;28;20021;-63
2023/09/14 07:38:45;;;;;;;18.10;14.43;;;896.90;1561.60;;;;;;5068121;28;20039;-62
2023/09/14 07:41:11;;;;;;;16.67;13.68;;;871.30;1612.80;;;;;;5060232;28;20036;-62
2023/09/14 07:43:37;;;;;;;15.80;13.63;;;871.20;1638.40;;;;;;5089323;28;20020;-63
2023/09/14 07:46:02;;;;;;;18.50;16.25;;;896.20;1587.20;;;;;;5088581;28;20024;-62
2023/09/14 07:48:28;;;;;;;18.60;15.68;;;896.40;1561.60;;;;;;5088749;28;20373;-62
2023/09/14 07:50:55;;;;;;;17.88;15.52;;;921.90;1510.40;;;;;;5089109;28;20024;-62
2023/09/14 07:53:21;;;;;;;20.67;16.17;;;896.50;1510.40;;;;;;5089638;28;20016;-63
2023/09/14 07:55:52;;;;;;;22.05;18.52;;;896.60;1510.40;;;;;;5089284;28;20382;-63
2023/09/14 07:58:19;;;;;;;20.98;18.77;;;973.40;1433.60;;;;;;5087704;28;20485;-63
2023/09/14 08:00:45;;;;;;;15.60;14.23;;;1024.70;1331.20;;;;;;5088214;28;20063;-62
2023/09/14 08:03:13;;;;;;;14.68;13.27;;;1024.00;1280.00;;;;;;5088302;28;20055;-64
2023/09/14 08:05:39;;;;;;;14.40;13.07;;;1024.00;1228.80;;;;;;5089099;28;20024;-63
2023/09/14 08:08:05;;;;;;;13.70;12.27;;;973.30;1305.60;;;;;;5087855;28;20371;-64
2023/09/14 08:10:31;;;;;;;15.10;11.65;;;921.90;1408.00;;;;;;5061956;28;20135;-63
2023/09/14 08:12:58;;;;;;;12.93;11.07;;;896.10;1408.00;;;;;;5068277;28;20043;-63
2023/09/14 08:15:25;;;;;;;12.85;11.55;;;871.00;1459.20;;;;;;5077542;28;20236;-64
2023/09/14 08:17:51;;;;;;;13.60;11.52;;;845.40;1536.00;;;;;;5073370;28;20024;-62
2023/09/14 08:20:17;;;;;;;16.85;12.52;;;819.60;1561.60;;;;;;5074235;28;20031;-62
2023/09/14 08:22:44;;;;;;;13.32;11.95;;;819.30;1612.80;;;;;;5086681;28;20070;-62
2023/09/14 08:25:10;;;;;;;14.98;12.52;;;794.20;1587.20;;;;;;5088992;28;20031;-62
2023/09/14 08:27:38;;;;;;;15.90;13.07;;;793.80;1638.40;;;;;;5076450;28;20020;-62
2023/09/14 08:30:09;;;;;;;13.63;11.98;;;794.10;1638.40;;;;;;5086930;28;20509;-62
2023/09/14 08:32:34;;;;;;;13.95;12.48;;;768.80;1664.00;;;;;;5088359;28;20024;-62
2023/09/14 08:35:25;;;;;;;15.30;12.88;;;768.60;1664.00;;;;;;5088568;28;20038;-62
2023/09/14 08:37:55;;;;;;;15.98;12.02;;;768.40;1689.60;;;;;;5088732;28;20462;-62
2023/09/14 08:40:21;;;;;;;15.13;12.73;;;768.20;1689.60;;;;;;5065394;28;20442;-62
2023/09/14 08:42:58;;;;;;;21.27;12.88;;;768.20;1689.60;;;;;;5061589;28;20390;-61
2023/09/14 08:45:25;;;;;;;20.42;14.88;;;768.50;1689.60;;;;;;5088572;28;20032;-62
2023/09/14 08:47:52;;;;;;;15.10;12.95;;;768.10;1689.60;;;;;;5088764;28;20056;-62
2023/09/14 08:50:19;;;;;;;16.60;13.00;;;768.00;1715.20;;;;;;5090198;28;20047;-63
2023/09/14 08:52:46;;;;;;;20.25;14.57;;;768.30;1689.60;;;;;;5092112;28;20017;-62
2023/09/14 08:55:12;;;;;;;16.48;13.07;;;743.30;1715.20;;;;;;5076936;28;20032;-62
2023/09/14 08:57:43;;;;;;;18.15;13.02;;;768.20;1715.20;;;;;;5080981;28;20025;-62
2023/09/14 09:00:19;;;;;;;16.65;13.73;;;768.00;1715.20;;;;;;5091463;28;20024;-61
2023/09/14 09:02:49;;;;;;;15.57;11.73;;;768.10;1715.20;;;;;;5091592;28;20063;-63
2023/09/14 09:05:16;;;;;;;16.70;12.93;;;743.30;1715.20;;;;;;5091480;28;20095;-62
2023/09/14 09:07:44;;;;;;;15.77;13.18;;;743.10;1740.80;;;;;;5092201;28;20466;-62
2023/09/14 09:10:25;;;;;;;13.88;12.30;;;743.20;1740.80;;;;;;5088316;28;20474;-62
2023/09/14 09:12:56;;;;;;;15.80;13.35;;;743.30;1740.80;;;;;;5078265;28;20520;-62
2023/09/14 09:15:26;;;;;;;16.40;14.23;;;743.30;1740.80;;;;;;5091563;28;20150;-60
2023/09/14 09:18:04;;;;;;;15.82;12.85;;;743.20;1792.00;;;;;;5090988;28;20020;-62
2023/09/14 09:20:30;;;;;;;16.13;13.60;;;743.30;1792.00;;;;;;5091728;28;20027;-62
2023/09/14 09:23:00;;;;;;;17.75;14.20;;;743.10;1843.20;;;;;;5091186;28;20028;-62
2023/09/14 09:25:29;;;;;;;21.95;14.73;;;743.10;1868.80;;;;;;5091578;28;20119;-62
2023/09/14 09:27:59;;;;;;;16.02;14.40;;;743.10;1920.00;;;;;;5091187;28;20103;-63
2023/09/14 09:30:35;;;;;;;15.00;13.50;;;742.80;1945.60;;;;;;5081287;28;20078;-62
2023/09/14 09:33:01;;;;;;;13.70;12.35;;;742.60;1868.80;;;;;;5070978;28;20028;-62
2023/09/14 09:35:29;;;;;;;16.15;14.18;;;742.50;1894.40;;;;;;5070608;28;20028;-62
2023/09/14 09:37:57;;;;;;;15.27;13.00;;;717.70;1920.00;;;;;;5081973;28;20078;-63
2023/09/14 09:40:24;;;;;;;13.68;12.13;;;717.60;1920.00;;;;;;5082079;28;20048;-62
2023/09/14 09:42:50;;;;;;;17.75;13.00;;;717.40;1920.00;;;;;;5065596;28;20034;-62
2023/09/14 09:45:19;;;;;;;12.57;11.27;;;717.60;1894.40;;;;;;5076706;28;20030;-62
2023/09/14 09:47:46;;;;;;;13.52;11.30;;;717.10;1945.60;;;;;;5070123;28;20016;-62
2023/09/14 09:50:14;;;;;;;14.23;11.25;;;717.10;1920.00;;;;;;5070504;28;20020;-63
2023/09/14 09:52:41;;;;;;;13.68;12.27;;;717.10;1945.60;;;;;;5078260;28;20059;-62
2023/09/14 09:55:16;;;;;;;14.05;10.23;;;717.00;1945.60;;;;;;5090317;28;20030;-62
2023/09/14 09:57:52;;;;;;;13.98;12.05;;;716.90;1920.00;;;;;;5091043;28;20028;-62
2023/09/14 10:00:19;;;;;;;17.70;11.52;;;717.00;1920.00;;;;;;5090122;28;20020;-62
2023/09/14 10:02:47;;;;;;;12.63;11.15;;;716.90;1945.60;;;;;;5090389;28;20031;-62
2023/09/14 10:05:14;;;;;;;13.20;11.00;;;717.10;1920.00;;;;;;5090489;28;20467;-62
2023/09/14 10:07:41;;;;;;;13.85;11.63;;;717.40;1894.40;;;;;;5090647;28;20031;-62
2023/09/14 10:10:11;;;;;;;12.82;11.52;;;717.60;1868.80;;;;;;5076406;28;20028;-62
2023/09/14 10:12:39;;;;;;;12.57;11.30;;;717.60;1868.80;;;;;;5074709;28;20044;-62
2023/09/14 10:15:08;;;;;;;12.60;11.07;;;717.50;1868.80;;;;;;5081230;28;20024;-62
2023/09/14 10:17:35;;;;;;;11.65;10.43;;;717.60;1868.80;;;;;;5088856;28;20036;-62
2023/09/14 10:20:06;;;;;;;14.27;10.50;;;717.30;1868.80;;;;;;5089901;28;20362;-62
2023/09/14 10:22:32;;;;;;;10.55;9.45;;;717.50;1868.80;;;;;;5090550;28;20024;-62
2023/09/14 10:24:59;;;;;;;10.65;9.55;;;717.40;1817.60;;;;;;5090291;28;20051;-61
2023/09/14 10:27:29;;;;;;;11.18;10.02;;;717.40;1843.20;;;;;;5090237;28;20028;-62
2023/09/14 10:29:56;;;;;;;16.80;12.45;;;717.40;1843.20;;;;;;5064183;28;20782;-61
2023/09/14 10:32:23;;;;;;;11.48;10.32;;;717.50;1843.20;;;;;;5090057;28;20115;-62
2023/09/14 10:34:50;;;;;;;12.45;11.15;;;717.50;1843.20;;;;;;5090492;28;20028;-62
2023/09/14 10:37:20;;;;;;;12.55;10.57;;;717.40;1817.60;;;;;;5089806;28;20118;-62
2023/09/14 10:39:46;;;;;;;11.80;10.60;;;717.30;1843.20;;;;;;5089955;28;20090;-61
2023/09/14 10:42:12;;;;;;;11.70;10.52;;;717.40;1843.20;;;;;;5082329;28;20044;-62
2023/09/14 10:44:38;;;;;;;11.48;10.27;;;717.40;1868.80;;;;;;5060677;28;20493;-62
2023/09/14 10:47:06;;;;;;;15.20;10.30;;;717.50;1843.20;;;;;;5083376;28;20432;-62
2023/09/14 10:49:35;;;;;;;12.35;11.07;;;717.50;1817.60;;;;;;5089947;28;20024;-62
2023/09/14 10:52:01;;;;;;;11.48;10.30;;;717.60;1843.20;;;;;;5089539;28;20038;-62
2023/09/14 10:54:31;;;;;;;12.40;10.15;;;717.50;1843.20;;;;;;5089552;28;20024;-62
2023/09/14 10:57:00;;;;;;;11.75;10.55;;;717.50;1843.20;;;;;;5089274;28;20012;-62
2023/09/14 10:59:51;;;;;;;12.82;9.93;;;717.50;1868.80;;;;;;5089201;28;20047;-62
2023/09/14 11:02:44;;;;;;;12.35;10.73;;;717.50;1843.20;;;;;;5089571;28;20088;-62
2023/09/14 11:05:20;;;;;;;12.73;11.40;;;717.40;1894.40;;;;;;5006962;28;20038;-62
2023/09/14 11:07:57;;;;;;;15.45;12.43;;;717.60;1868.80;;;;;;5007338;28;20113;-62
2023/09/14 11:10:23;;;;;;;11.60;10.32;;;717.60;1843.20;;;;;;5006997;28;20046;-61
2023/09/14 11:12:50;;;;;;;11.85;10.63;;;717.60;1817.60;;;;;;4996603;28;20039;-61
2023/09/14 11:15:20;;;;;;;12.00;10.52;;;742.40;1843.20;;;;;;4989001;28;20154;-62
2023/09/14 11:17:48;;;;;;;12.02;10.10;;;742.50;1843.20;;;;;;4992532;28;20526;-62
2023/09/14 11:20:40;;;;;;;11.52;10.40;;;742.50;1817.60;;;;;;5003692;28;20579;-61
2023/09/14 11:23:07;;;;;;;12.48;10.18;;;742.60;1792.00;;;;;;4933954;29;20084;-62
2023/09/14 11:25:37;;;;;;;10.75;9.70;;;742.60;1817.60;;;;;;4928976;29;20039;-62
2023/09/14 11:28:07;;;;;;;12.05;10.80;;;742.60;1843.20;;;;;;4947696;29;20058;-61
2023/09/14 11:30:41;;;;;;;77.43;19.05;;;742.80;1843.20;;;;;;4948917;29;20035;-62
2023/09/14 11:33:08;;;;;;;14.55;10.50;;;742.60;1817.60;;;;;;4948416;28;20544;-61
2023/09/14 11:35:38;;;;;;;13.13;10.25;;;742.80;1817.60;;;;;;4948569;29;20036;-61
2023/09/14 11:38:16;;;;;;;12.25;10.55;;;743.00;1843.20;;;;;;4948489;29;20062;-62
2023/09/14 11:40:43;;;;;;;15.55;10.90;;;742.90;1843.20;;;;;;4948490;29;21593;-61
2023/09/14 11:45:57;;;;;;;12.70;11.40;;;743.00;1868.80;;;;;;5035415;28;20035;-61
2023/09/14 11:48:23;;;;;;;12.20;10.10;;;743.10;1843.20;;;;;;5037228;28;20029;-62
2023/09/14 11:50:51;;;;;;;15.25;10.75;;;743.00;1843.20;;;;;;5045973;28;20112;-62
2023/09/14 11:53:19;;;;;;;15.90;10.63;;;743.20;1843.20;;;;;;5032258;28;20034;-63
2023/09/14 11:55:48;;;;;;;11.10;9.88;;;743.10;1792.00;;;;;;5024793;28;20029;-62
2023/09/14 11:58:14;;;;;;;15.32;10.68;;;743.10;1792.00;;;;;;5023724;28;20540;-62
2023/09/14 12:00:46;;;;;;;12.18;9.68;;;743.20;1843.20;;;;;;5059860;28;20138;-62
2023/09/14 12:03:12;;;;;;;11.60;9.73;;;743.20;1792.00;;;;;;5088491;28;20008;-61
2023/09/14 12:05:38;;;;;;;12.15;9.23;;;743.00;1817.60;;;;;;5088709;28;20268;-62
2023/09/14 12:08:11;;;;;;;12.10;9.55;;;743.10;1792.00;;;;;;5075312;28;20028;-61